Portada
METAR-TAF:

METAR-TAF

Aeroports :

Erzurum, Turquia

latitud: 39-55N, longitud: 041-16E, altitud: 1756 m

Observació

L'informe es va fer fa 32 minuts, a les 00:20 UTC
Vent 5 kt del Nord/Nord-Est, variant entre Nord-Oest i Nord-Est
Temperatura 16°C
Humitat 68%
Pressió 1020 hPa
Visibilitat 10 km o més
Núvols disperses a una alçada de 4000 ft

METAR: LTCE 200020Z 02005KT 320V050 9999 SCT040 16/10 Q1020 NOSIG RMK RWY08R 35003KT 330V040 RWY26R 01004KT 330V060 RWY08L VRB02KT

Hora: 03:52 (00:52 UTC)

Pronòstic

L'informe es va fer fa 2 hores i 12 minuts, a les 22:40 UTC
Pronòstic vàlid del 20 a les 00 UTC al 20 a les 24 UTC
Vent 8 kt del Nord/Nord-Est
Visibilitat 10 km o més
Núvols disperses a una alçada de 4000 ft
Evolucionant progressivament
l' 20 a les 06 UTC al 20 a les 08 UTC
Visibilitat 10 km o més
sense núvols per sota de 1500 mi sense presència de cumulonimbus.

TAF: LTCE 192240Z 2000/2024 03008KT 9999 SCT040 BECMG 2006/2008 CAVOK

Observacions i pronòstics meteorològics de més de 4000 aeroports (METAR i TAF).

Les estacions disponibles són els punts grocs i vermells al mapa.

Posi el ratolí al punt desitjat per veure el nom de l'estació.

Feu clic per veure les observacions i els pronòstics meteorològics.

Per canviar el mapa: feu clic els botons verds amb una creu de color negre per apropar; al botó verd amb un guió per allunyar la imatge; o en les fletxes verdes per a mapes adjacents.


METAR-TAF: